createdAt,value
2019-01-31T00:03:01.171Z,0.96
2019-01-31T00:08:27.492Z,0.82
2019-01-31T00:13:39.945Z,0.95
2019-01-31T00:18:58.400Z,0.93
2019-01-31T00:24:09.704Z,0.88
2019-01-31T00:29:14.632Z,0.85
2019-01-31T00:34:22.539Z,0.76
2019-01-31T00:39:41.418Z,1.12
2019-01-31T00:45:05.392Z,0.97
2019-01-31T00:50:32.990Z,1.00
2019-01-31T00:55:33.281Z,0.91
2019-01-31T01:00:49.229Z,1.00
2019-01-31T01:06:09.279Z,0.94
2019-01-31T01:11:36.952Z,0.98
2019-01-31T01:16:36.655Z,0.98
2019-01-31T01:21:42.147Z,0.87
2019-01-31T01:26:47.653Z,1.00
2019-01-31T01:31:50.020Z,0.99
2019-01-31T01:37:01.942Z,0.86
2019-01-31T01:42:10.535Z,0.99
2019-01-31T01:47:16.114Z,1.11
2019-01-31T01:52:43.098Z,1.10
2019-01-31T01:58:00.807Z,1.09
2019-01-31T02:03:17.407Z,1.08
2019-01-31T02:08:26.399Z,1.10
2019-01-31T02:13:31.864Z,1.16
2019-01-31T02:18:40.092Z,1.23
2019-01-31T02:23:46.384Z,1.16
2019-01-31T02:29:16.437Z,1.30
2019-01-31T02:34:37.437Z,1.27
2019-01-31T02:40:02.908Z,1.20
2019-01-31T02:45:17.209Z,1.28
2019-01-31T02:50:19.955Z,1.23
2019-01-31T02:55:39.058Z,1.21
2019-01-31T03:01:05.865Z,1.39
2019-01-31T03:06:11.336Z,1.48
2019-01-31T03:11:17.156Z,1.48
2019-01-31T03:16:22.426Z,1.54
2019-01-31T03:21:34.318Z,1.50
2019-01-31T03:26:43.271Z,1.53
2019-01-31T03:32:01.148Z,1.63
2019-01-31T03:37:23.834Z,1.49
2019-01-31T03:42:55.615Z,1.45
2019-01-31T03:48:13.433Z,1.27
2019-01-31T03:53:18.936Z,1.14
2019-01-31T03:58:21.885Z,0.82
2019-01-31T04:03:33.703Z,0.33
2019-01-31T04:08:29.553Z,0.15
2019-01-31T04:13:25.438Z,0.11
2019-01-31T04:18:21.337Z,-0.01
2019-01-31T04:23:17.213Z,-0.08
2019-01-31T04:28:13.130Z,0.02
2019-01-31T04:33:09.030Z,-0.27
2019-01-31T04:38:05.017Z,-0.24
2019-01-31T04:43:00.900Z,-0.82
2019-01-31T04:47:56.836Z,-0.89
2019-01-31T04:52:52.698Z,-0.96
2019-01-31T04:57:48.627Z,-1.04
2019-01-31T05:02:44.607Z,-1.06
2019-01-31T05:07:40.500Z,-1.04
2019-01-31T05:12:36.509Z,-1.27
2019-01-31T05:17:32.405Z,-1.23
2019-01-31T05:22:28.321Z,-1.13
2019-01-31T05:27:24.203Z,-0.97
2019-01-31T05:32:20.085Z,-0.85
2019-01-31T05:37:16.072Z,-0.89
2019-01-31T05:42:11.956Z,-0.87
2019-01-31T05:47:07.848Z,-0.95
2019-01-31T05:52:03.758Z,-1.19
2019-01-31T05:56:59.629Z,-1.28
2019-01-31T06:01:55.519Z,-1.21
2019-01-31T06:06:51.378Z,-1.30
2019-01-31T06:11:47.286Z,-1.28
2019-01-31T06:16:43.185Z,-1.44
2019-01-31T06:21:39.062Z,-1.61
2019-01-31T06:26:36.135Z,-1.59
2019-01-31T06:31:32.091Z,-1.70
2019-01-31T06:36:27.977Z,-1.79
2019-01-31T06:41:23.899Z,-1.95
2019-01-31T06:46:19.880Z,-1.98
2019-01-31T06:51:15.768Z,-1.82
2019-01-31T06:56:11.678Z,-1.66
2019-01-31T07:01:07.667Z,-1.68
2019-01-31T07:06:03.649Z,-1.72
2019-01-31T07:10:59.559Z,-1.82
2019-01-31T07:15:55.456Z,-1.77
2019-01-31T07:20:51.346Z,-1.69
2019-01-31T07:25:47.229Z,-1.61
2019-01-31T07:30:43.213Z,-1.55
2019-01-31T07:35:39.096Z,-1.47
2019-01-31T07:40:34.989Z,-1.48
2019-01-31T07:45:31.275Z,-1.47
2019-01-31T07:50:27.267Z,-1.37
2019-01-31T07:55:23.300Z,-1.15
2019-01-31T08:00:21.301Z,-0.91
2019-01-31T08:05:18.994Z,-0.51
2019-01-31T08:10:20.823Z,-0.20
2019-01-31T08:15:18.121Z,0.07
2019-01-31T08:20:18.565Z,0.08
2019-01-31T08:25:22.109Z,0.05
2019-01-31T08:30:42.522Z,-0.02
2019-01-31T08:35:38.425Z,0.07
2019-01-31T08:40:34.315Z,0.20
2019-01-31T08:45:30.209Z,0.47
2019-01-31T08:50:27.961Z,0.92
2019-01-31T08:55:24.308Z,1.30
2019-01-31T09:00:28.685Z,1.74
2019-01-31T09:05:24.541Z,2.12
2019-01-31T09:10:29.023Z,2.33
2019-01-31T09:15:25.319Z,2.37
2019-01-31T09:20:25.019Z,2.13
2019-01-31T09:25:24.729Z,1.98
2019-01-31T09:30:53.122Z,1.93
2019-01-31T09:35:58.830Z,1.73
2019-01-31T09:41:04.397Z,1.93
2019-01-31T09:46:04.156Z,2.15
2019-01-31T09:51:17.417Z,1.93
2019-01-31T09:56:54.146Z,2.02
2019-01-31T10:02:28.780Z,1.83
2019-01-31T10:07:46.860Z,1.71
2019-01-31T10:13:09.848Z,1.79
2019-01-31T10:18:42.630Z,2.15
2019-01-31T10:23:56.815Z,2.60
2019-01-31T10:29:22.652Z,2.52
2019-01-31T10:34:37.369Z,2.85
2019-01-31T10:39:39.935Z,3.61
2019-01-31T10:45:13.550Z,4.13
2019-01-31T10:50:30.870Z,4.13
2019-01-31T10:55:53.488Z,4.32
2019-01-31T11:01:05.213Z,4.50
2019-01-31T11:06:20.104Z,4.48
2019-01-31T11:11:41.004Z,4.35
2019-01-31T11:17:04.740Z,4.02
2019-01-31T11:22:07.252Z,3.99
2019-01-31T11:27:10.216Z,3.66
2019-01-31T11:32:31.444Z,3.70
2019-01-31T11:37:31.151Z,3.77
2019-01-31T11:42:39.964Z,3.88
2019-01-31T11:47:51.708Z,3.73
2019-01-31T11:53:06.154Z,3.79
2019-01-31T11:58:41.872Z,3.84
2019-01-31T12:03:37.769Z,3.53
2019-01-31T12:08:33.834Z,3.57
2019-01-31T12:13:29.805Z,3.73
2019-01-31T12:18:25.831Z,4.03
2019-01-31T12:23:22.764Z,3.92
2019-01-31T12:28:25.519Z,4.54
2019-01-31T12:33:24.007Z,4.51
2019-01-31T12:38:23.943Z,4.13
2019-01-31T12:43:35.044Z,4.37
2019-01-31T12:48:27.144Z,4.41
2019-01-31T12:53:25.981Z,4.78
2019-01-31T12:58:33.797Z,4.67
2019-01-31T13:03:32.054Z,4.88
2019-01-31T13:08:36.228Z,4.64
2019-01-31T13:13:45.957Z,4.68
2019-01-31T13:18:35.412Z,4.75
2019-01-31T13:23:34.556Z,4.12
2019-01-31T13:28:35.843Z,4.09
2019-01-31T13:33:34.364Z,3.92
2019-01-31T13:38:34.902Z,3.73
2019-01-31T13:43:36.211Z,3.90
2019-01-31T13:48:38.745Z,4.02
2019-01-31T13:53:36.340Z,3.84
2019-01-31T13:58:34.582Z,3.64
2019-01-31T14:03:36.350Z,3.53
2019-01-31T14:08:34.230Z,3.62
2019-01-31T14:13:32.579Z,3.62
2019-01-31T14:18:30.373Z,3.60
2019-01-31T14:28:50.652Z,3.64
2019-01-31T14:33:47.778Z,3.42
2019-01-31T14:38:45.466Z,3.46
2019-01-31T14:49:02.541Z,3.48
2019-01-31T14:54:02.909Z,3.41
2019-01-31T14:59:02.292Z,3.46
2019-01-31T15:04:02.199Z,3.58
2019-01-31T15:08:59.924Z,3.64
2019-01-31T15:13:59.172Z,3.54
2019-01-31T15:18:58.352Z,3.47
2019-01-31T15:23:59.663Z,3.43
2019-01-31T15:29:05.804Z,3.36
2019-01-31T15:34:09.274Z,3.27
2019-01-31T15:39:08.076Z,3.18
2019-01-31T15:44:10.784Z,3.20
2019-01-31T15:49:14.411Z,3.23
2019-01-31T15:54:14.953Z,3.04
2019-01-31T15:59:11.759Z,2.96
2019-01-31T16:04:13.131Z,2.68
2019-01-31T16:09:09.895Z,2.50
2019-01-31T16:14:09.419Z,2.36
2019-01-31T16:19:11.909Z,2.36
2019-01-31T16:24:11.351Z,2.41
2019-01-31T16:29:13.615Z,2.30
2019-01-31T16:34:11.916Z,2.17
2019-01-31T16:39:15.075Z,2.26
2019-01-31T16:44:18.408Z,2.23
2019-01-31T16:49:15.821Z,2.19
2019-01-31T16:54:13.158Z,2.36
2019-01-31T16:59:09.179Z,2.28
2019-01-31T17:04:05.259Z,2.24
2019-01-31T17:09:10.244Z,2.20
2019-01-31T17:14:11.190Z,1.96
2019-01-31T17:19:13.311Z,1.89
2019-01-31T17:24:11.433Z,1.87
2019-01-31T17:29:07.998Z,1.95
2019-01-31T17:34:03.932Z,1.92
2019-01-31T17:39:00.746Z,1.99
2019-01-31T17:43:57.797Z,2.00
2019-01-31T17:48:56.174Z,2.07
2019-01-31T17:53:54.342Z,2.05
2019-01-31T17:58:50.332Z,1.99
2019-01-31T18:03:46.279Z,2.03
2019-01-31T18:08:42.228Z,2.06
2019-01-31T18:13:38.248Z,1.96
2019-01-31T18:18:34.140Z,1.95
2019-01-31T18:23:31.863Z,2.04
2019-01-31T18:28:27.881Z,2.07
2019-01-31T18:33:23.778Z,2.11
2019-01-31T18:38:19.739Z,2.22
2019-01-31T18:43:15.848Z,2.14
2019-01-31T18:48:11.740Z,2.20
2019-01-31T18:53:07.829Z,2.18
2019-01-31T18:58:04.804Z,2.15
2019-01-31T19:03:00.800Z,2.03
2019-01-31T19:07:56.899Z,2.02
2019-01-31T19:12:52.924Z,2.07
2019-01-31T19:17:48.985Z,2.05
2019-01-31T19:22:45.140Z,1.99
2019-01-31T19:27:43.066Z,2.10
2019-01-31T19:32:39.349Z,2.09
2019-01-31T19:37:40.422Z,2.13
2019-01-31T19:42:38.274Z,2.07
2019-01-31T19:47:35.225Z,2.05
2019-01-31T19:52:31.490Z,2.04
2019-01-31T19:57:27.826Z,2.05
2019-01-31T20:02:24.011Z,2.08
2019-01-31T20:07:19.885Z,2.09
2019-01-31T20:12:15.906Z,2.02
2019-01-31T20:17:11.808Z,2.08
2019-01-31T20:22:07.954Z,2.07
2019-01-31T20:27:03.948Z,1.99
2019-01-31T20:32:00.519Z,2.02
2019-01-31T20:36:56.418Z,2.04
2019-01-31T20:41:54.296Z,2.03
2019-01-31T20:46:50.073Z,2.03
2019-01-31T20:51:45.977Z,2.06
2019-01-31T20:56:41.978Z,2.07
2019-01-31T21:01:38.661Z,1.96
2019-01-31T21:06:41.414Z,2.09
2019-01-31T21:11:32.577Z,2.06
2019-01-31T21:16:28.605Z,2.10
2019-01-31T21:21:24.464Z,2.09
2019-01-31T21:26:20.480Z,2.09
2019-01-31T21:31:16.376Z,2.06
2019-01-31T21:36:12.262Z,1.96
2019-01-31T21:41:08.201Z,1.84
2019-01-31T21:46:04.330Z,1.66
2019-01-31T21:51:04.087Z,1.48
2019-01-31T21:56:02.144Z,1.44
2019-01-31T22:01:14.969Z,1.35
2019-01-31T22:06:22.608Z,1.22
2019-01-31T22:11:24.530Z,1.05
2019-01-31T22:16:25.638Z,0.56
2019-01-31T22:21:29.199Z,0.33
2019-01-31T22:26:32.080Z,0.44
2019-01-31T22:31:33.604Z,0.63
2019-01-31T22:36:35.604Z,0.39
2019-01-31T22:41:56.770Z,0.29
2019-01-31T22:46:59.236Z,0.46
2019-01-31T22:51:55.221Z,0.52
2019-01-31T22:56:51.115Z,0.74
2019-01-31T23:01:51.257Z,0.81
2019-01-31T23:06:47.247Z,0.83
2019-01-31T23:11:43.261Z,0.84
2019-01-31T23:16:39.766Z,0.75
2019-01-31T23:21:35.747Z,0.75
2019-01-31T23:26:31.743Z,0.83
2019-01-31T23:31:27.625Z,0.91
2019-01-31T23:36:23.612Z,0.97
2019-01-31T23:41:19.600Z,0.98
2019-01-31T23:46:15.587Z,1.05
2019-01-31T23:51:11.481Z,0.99
2019-01-31T23:56:07.368Z,1.02
